Time;durP1;ratioP1;P1;durP2;ratioP2;P2;SDS_P1;SDS_P2;PMS_P1;PMS_P2;Temp;Humidity;BMP_temperature;BMP_pressure;BME280_temperature;BME280_humidity;BME280_pressure;Samples;Min_cycle;Max_cycle;Signal;HPM_P1;HPM_P2
2022/11/30 00:01:19;;;;;;;20.80;9.57;;;;;;;2.62;100.00;99307.94;4469362;32;20080;-73
2022/11/30 00:03:47;;;;;;;24.80;10.70;;;;;;;2.72;100.00;99297.13;4469517;32;20119;-73
2022/11/30 00:06:21;;;;;;;22.45;9.90;;;;;;;2.67;100.00;99298.19;4469431;32;20164;-73
2022/11/30 00:08:53;;;;;;;21.55;9.73;;;;;;;2.61;100.00;99295.91;4477212;32;20168;-73
2022/11/30 00:11:21;;;;;;;24.80;10.25;;;;;;;2.63;100.00;99298.41;4485101;31;20085;-73
2022/11/30 00:13:49;;;;;;;25.10;10.57;;;;;;;2.63;100.00;99291.50;4485063;31;20128;-73
2022/11/30 00:16:16;;;;;;;19.80;9.63;;;;;;;2.63;100.00;99301.88;4485006;31;20110;-73
2022/11/30 00:18:43;;;;;;;21.10;9.60;;;;;;;2.62;100.00;99295.00;4485069;32;20088;-73
2022/11/30 00:21:12;;;;;;;21.37;9.77;;;;;;;2.60;100.00;99294.22;4475673;31;20108;-73
2022/11/30 00:23:41;;;;;;;23.50;9.98;;;;;;;2.66;100.00;99298.25;4469249;32;20168;-73
2022/11/30 00:26:11;;;;;;;23.98;10.60;;;;;;;2.65;100.00;99294.03;4469517;32;20092;-73
2022/11/30 00:28:39;;;;;;;27.08;11.77;;;;;;;2.61;100.00;99300.25;4469305;32;20148;-73
2022/11/30 00:31:09;;;;;;;20.08;9.50;;;;;;;2.63;100.00;99304.44;4469205;32;20080;-73
2022/11/30 00:33:37;;;;;;;20.42;9.40;;;;;;;2.69;100.00;99292.13;4469222;32;20123;-73
2022/11/30 00:36:07;;;;;;;21.15;9.43;;;;;;;2.65;100.00;99294.03;4469230;32;20097;-73
2022/11/30 00:38:34;;;;;;;22.33;9.52;;;;;;;2.64;100.00;99298.34;4469264;32;20089;-73
2022/11/30 00:41:02;;;;;;;21.05;9.88;;;;;;;2.66;100.00;99299.13;4469360;32;20507;-73
2022/11/30 00:43:29;;;;;;;25.05;10.27;;;;;;;2.72;100.00;99304.91;4469281;32;20105;-73
2022/11/30 00:45:57;;;;;;;21.55;9.88;;;;;;;2.67;100.00;99308.53;4469143;32;20084;-73
2022/11/30 00:48:24;;;;;;;19.60;9.40;;;;;;;2.72;100.00;99297.97;4469450;32;20201;-73
2022/11/30 00:50:51;;;;;;;20.15;10.05;;;;;;;2.80;100.00;99307.94;4469168;32;20104;-73
2022/11/30 00:53:19;;;;;;;19.85;9.02;;;;;;;2.79;100.00;99303.69;4468934;32;20100;-73
2022/11/30 00:55:47;;;;;;;17.37;8.20;;;;;;;2.76;100.00;99311.62;4468966;32;20155;-73
2022/11/30 00:58:15;;;;;;;21.25;8.65;;;;;;;2.79;100.00;99312.28;4469011;32;20163;-73
2022/11/30 01:00:43;;;;;;;17.77;8.93;;;;;;;2.84;100.00;99314.66;4468698;32;20168;-73
2022/11/30 01:03:10;;;;;;;20.80;9.10;;;;;;;2.81;100.00;99312.22;4468355;32;20574;-72
2022/11/30 01:05:38;;;;;;;19.33;8.15;;;;;;;2.89;100.00;99315.25;4468880;32;20151;-73
2022/11/30 01:08:07;;;;;;;21.37;8.32;;;;;;;2.93;100.00;99318.53;4471838;32;20147;-73
2022/11/30 01:10:35;;;;;;;21.40;9.02;;;;;;;2.90;100.00;99322.13;4484630;31;20135;-73
2022/11/30 01:13:03;;;;;;;18.77;8.15;;;;;;;2.88;100.00;99318.78;4484556;31;20160;-73
2022/11/30 01:15:30;;;;;;;19.27;9.30;;;;;;;2.90;100.00;99309.19;4484627;31;20096;-73
2022/11/30 01:17:58;;;;;;;16.10;8.60;;;;;;;2.91;100.00;99321.22;4484266;31;20118;-73
2022/11/30 01:20:26;;;;;;;17.30;7.97;;;;;;;2.92;100.00;99316.88;4479743;31;20120;-73
2022/11/30 01:22:54;;;;;;;18.15;8.07;;;;;;;2.91;100.00;99310.03;4468539;32;20100;-73
2022/11/30 01:25:22;;;;;;;18.37;9.23;;;;;;;2.88;100.00;99307.56;4468742;32;20161;-73
2022/11/30 01:27:50;;;;;;;17.85;8.07;;;;;;;2.88;100.00;99303.25;4468699;32;20450;-73
2022/11/30 01:30:17;;;;;;;14.68;6.65;;;;;;;2.87;100.00;99301.56;4468333;32;20081;-73
2022/11/30 01:32:44;;;;;;;18.70;8.43;;;;;;;2.90;100.00;99295.41;4468548;32;20369;-73
2022/11/30 01:35:12;;;;;;;16.33;7.65;;;;;;;2.94;100.00;99302.13;4468915;32;20108;-73
2022/11/30 01:37:39;;;;;;;16.90;7.32;;;;;;;2.93;100.00;99298.66;4468476;32;20488;-73
2022/11/30 01:40:07;;;;;;;14.27;7.12;;;;;;;2.88;100.00;99298.06;4468448;32;20096;-73
2022/11/30 01:42:36;;;;;;;19.23;8.38;;;;;;;2.84;100.00;99296.53;4468612;32;20215;-73
2022/11/30 01:45:06;;;;;;;15.85;7.18;;;;;;;2.91;100.00;99300.50;4468601;32;20096;-73
2022/11/30 01:48:04;;;;;;;16.90;7.55;;;;;;;2.91;100.00;99297.91;4468680;32;20084;-73
2022/11/30 01:50:33;;;;;;;15.15;6.35;;;;;;;2.90;100.00;99295.41;4422322;32;20172;-73
2022/11/30 01:53:00;;;;;;;15.43;6.80;;;;;;;2.87;100.00;99296.38;4422009;32;20168;-73
2022/11/30 01:55:33;;;;;;;21.67;6.97;;;;;;;2.82;100.00;99295.78;4434825;32;20133;-74
2022/11/30 01:58:05;;;;;;;15.60;7.20;;;;;;;2.90;100.00;99295.41;4435161;32;20155;-73
2022/11/30 02:00:32;;;;;;;13.60;6.93;;;;;;;2.89;100.00;99294.56;4421775;32;20089;-74
2022/11/30 02:03:27;;;;;;;13.60;6.18;;;;;;;2.90;100.00;99295.41;4434603;32;20566;-73
2022/11/30 02:05:54;;;;;;;13.95;6.62;;;;;;;2.93;100.00;99293.50;4434793;32;20191;-73
2022/11/30 02:08:21;;;;;;;14.25;6.28;;;;;;;2.91;100.00;99292.75;4426293;32;20113;-73
2022/11/30 02:10:52;;;;;;;11.10;5.30;;;;;;;2.89;100.00;99291.13;4437116;32;20111;-73
2022/11/30 02:13:22;;;;;;;15.15;6.28;;;;;;;2.92;100.00;99289.25;4437138;32;20169;-73
2022/11/30 02:15:49;;;;;;;16.75;6.07;;;;;;;2.96;100.00;99287.34;4452422;32;20664;-73
2022/11/30 02:18:25;;;;;;;16.40;6.70;;;;;;;3.00;100.00;99300.06;4452229;32;20147;-73
2022/11/30 02:20:59;;;;;;;12.50;5.68;;;;;;;2.99;100.00;99298.38;4444692;32;20148;-73
2022/11/30 02:23:46;;;;;;;12.75;6.53;;;;;;;3.07;100.00;99297.97;4424101;32;20152;-73
2022/11/30 02:26:43;;;;;;;14.60;6.47;;;;;;;3.05;100.00;99289.47;4396648;32;20525;-73
2022/11/30 02:29:15;;;;;;;15.45;6.25;;;;;;;3.04;100.00;99281.78;4421209;32;20104;-73
2022/11/30 02:32:02;;;;;;;14.20;6.85;;;;;;;3.10;100.00;99291.81;4408693;32;20113;-73
2022/11/30 02:34:31;;;;;;;12.18;6.87;;;;;;;3.06;100.00;99285.13;4421424;32;20244;-73
2022/11/30 02:36:59;;;;;;;11.55;5.90;;;;;;;3.06;100.00;99278.22;4421263;32;20693;-73
2022/11/30 02:39:26;;;;;;;11.68;5.68;;;;;;;3.06;100.00;99279.94;4421399;32;20164;-73
2022/11/30 02:41:53;;;;;;;11.82;6.22;;;;;;;3.04;100.00;99274.00;4421312;32;20109;-73
2022/11/30 02:44:21;;;;;;;10.82;5.30;;;;;;;3.06;100.00;99280.78;4421188;32;20532;-73
2022/11/30 02:47:23;;;;;;;14.77;6.28;;;;;;;3.08;100.00;99288.47;4421376;32;20227;-73
2022/11/30 02:50:03;;;;;;;11.38;5.90;;;;;;;3.16;100.00;99281.16;4390577;32;20114;-73
2022/11/30 02:52:30;;;;;;;15.75;6.87;;;;;;;3.12;100.00;99279.63;4390996;32;20485;-73
2022/11/30 02:55:00;;;;;;;11.95;6.20;;;;;;;3.11;100.00;99275.38;4378299;32;20149;-73
2022/11/30 02:57:27;;;;;;;14.45;5.87;;;;;;;3.14;100.00;99283.00;4378527;32;20094;-73
2022/11/30 02:59:54;;;;;;;16.75;5.95;;;;;;;3.12;100.00;99284.81;4390303;32;20133;-73
2022/11/30 03:02:21;;;;;;;11.23;5.78;;;;;;;3.12;100.00;99277.91;4381242;32;20184;-73
2022/11/30 03:04:49;;;;;;;16.27;6.10;;;;;;;3.21;100.00;99279.19;4436454;32;20179;-73
2022/11/30 03:07:16;;;;;;;16.87;6.87;;;;;;;3.22;100.00;99274.84;4436351;32;20110;-73
2022/11/30 03:09:43;;;;;;;13.35;5.37;;;;;;;3.19;100.00;99275.81;4436368;32;20184;-73
2022/11/30 03:12:10;;;;;;;13.60;6.30;;;;;;;3.20;100.00;99277.50;4436362;32;20417;-73
2022/11/30 03:14:37;;;;;;;17.50;6.25;;;;;;;3.27;100.00;99283.19;4436362;32;20463;-73
2022/11/30 03:17:05;;;;;;;12.60;5.75;;;;;;;3.31;100.00;99284.72;4436470;32;20152;-73
2022/11/30 03:19:33;;;;;;;13.60;6.55;;;;;;;3.37;100.00;99287.00;4436219;32;20586;-73
2022/11/30 03:22:00;;;;;;;13.48;5.87;;;;;;;3.35;100.00;99287.06;4436201;32;20142;-73
2022/11/30 03:24:27;;;;;;;15.82;5.80;;;;;;;3.35;100.00;99287.06;4435994;32;20113;-73
2022/11/30 03:26:54;;;;;;;9.52;5.47;;;;;;;3.33;100.00;99285.47;4452606;32;20112;-73
2022/11/30 03:29:21;;;;;;;13.95;5.82;;;;;;;3.32;100.00;99291.59;4469782;32;20118;-73
2022/11/30 03:31:48;;;;;;;13.05;6.43;;;;;;;3.36;100.00;99288.75;4469617;32;20101;-73
2022/11/30 03:34:15;;;;;;;11.77;6.00;;;;;;;3.39;100.00;99292.91;4469664;32;20165;-73
2022/11/30 03:36:42;;;;;;;14.55;5.90;;;;;;;3.35;100.00;99287.06;4469750;32;20116;-74
2022/11/30 03:39:10;;;;;;;13.38;6.25;;;;;;;3.33;100.00;99288.91;4469471;32;20100;-73
2022/11/30 03:41:37;;;;;;;16.48;6.87;;;;;;;3.33;100.00;99286.31;4469645;32;20573;-73
2022/11/30 03:44:04;;;;;;;11.82;5.93;;;;;;;3.28;100.00;99293.47;4469618;32;20104;-73
2022/11/30 03:46:32;;;;;;;15.43;6.05;;;;;;;3.28;100.00;99285.72;4469666;32;20215;-73
2022/11/30 03:48:59;;;;;;;11.63;5.05;;;;;;;3.35;100.00;99292.25;4469561;32;20541;-73
2022/11/30 03:51:26;;;;;;;15.70;6.35;;;;;;;3.33;100.00;99291.50;4469650;32;20100;-73
2022/11/30 03:53:54;;;;;;;14.95;6.72;;;;;;;3.33;100.00;99283.75;4469548;32;20493;-73
2022/11/30 03:56:21;;;;;;;11.73;5.18;;;;;;;3.32;100.00;99286.41;4469481;32;20598;-73
2022/11/30 03:58:48;;;;;;;11.23;5.85;;;;;;;3.30;100.00;99283.91;4469767;32;20593;-73
2022/11/30 04:01:18;;;;;;;12.45;5.57;;;;;;;3.35;100.00;99284.50;4469444;32;20387;-74
2022/11/30 04:03:45;;;;;;;16.62;6.60;;;;;;;3.31;100.00;99289.91;4469296;32;20135;-73
2022/11/30 04:06:12;;;;;;;11.27;5.72;;;;;;;3.33;100.00;99291.50;4469614;32;20157;-73
2022/11/30 04:08:40;;;;;;;14.20;6.07;;;;;;;3.34;100.00;99292.34;4476039;32;20112;-73
2022/11/30 04:11:07;;;;;;;12.37;5.97;;;;;;;3.33;100.00;99282.88;4485203;31;20107;-73
2022/11/30 04:13:36;;;;;;;12.48;5.70;;;;;;;3.35;100.00;99291.44;4485182;31;20422;-73
2022/11/30 04:16:04;;;;;;;12.40;5.90;;;;;;;3.31;100.00;99285.56;4485152;31;20115;-73
2022/11/30 04:18:33;;;;;;;10.18;5.30;;;;;;;3.28;100.00;99290.88;4485122;32;20143;-73
2022/11/30 04:21:00;;;;;;;12.77;6.05;;;;;;;3.32;100.00;99287.22;4476785;31;20093;-73
2022/11/30 04:23:33;;;;;;;12.43;5.12;;;;;;;3.37;100.00;99293.00;4469403;32;20130;-73
2022/11/30 04:26:05;;;;;;;15.05;5.70;;;;;;;3.31;100.00;99287.31;4469466;32;20166;-74
2022/11/30 04:28:32;;;;;;;9.85;5.55;;;;;;;3.34;100.00;99289.75;4469407;32;20134;-73
2022/11/30 04:30:59;;;;;;;11.63;5.25;;;;;;;3.36;100.00;99293.09;4469108;32;20110;-73
2022/11/30 04:33:27;;;;;;;14.07;5.20;;;;;;;3.33;100.00;99283.75;4469228;32;20135;-73
2022/11/30 04:35:56;;;;;;;9.57;5.05;;;;;;;3.34;100.00;99282.81;4468028;32;20126;-73
2022/11/30 04:38:24;;;;;;;14.13;5.75;;;;;;;3.34;100.00;99282.81;4468791;32;20135;-73
2022/11/30 04:40:51;;;;;;;11.93;5.43;;;;;;;3.34;100.00;99292.34;4469123;32;20454;-74
2022/11/30 04:43:19;;;;;;;11.98;5.30;;;;;;;3.34;100.00;99290.56;4469246;32;20108;-73
2022/11/30 04:45:46;;;;;;;9.73;4.87;;;;;;;3.31;100.00;99292.50;4469221;32;20114;-73
2022/11/30 04:48:15;;;;;;;12.45;5.18;;;;;;;3.41;100.00;99292.84;4469252;32;20206;-73
2022/11/30 04:50:42;;;;;;;12.07;5.57;;;;;;;3.36;100.00;99299.13;4469172;32;20164;-73
2022/11/30 04:53:09;;;;;;;12.70;5.68;;;;;;;3.41;100.00;99296.28;4469004;32;20449;-74
2022/11/30 04:55:37;;;;;;;8.43;5.12;;;;;;;3.38;100.00;99292.09;4469255;32;20124;-73
2022/11/30 04:58:05;;;;;;;9.55;4.45;;;;;;;3.34;100.00;99282.81;4468987;32;20084;-73
2022/11/30 05:00:32;;;;;;;11.02;5.03;;;;;;;3.34;100.00;99293.16;4468970;32;20161;-73
2022/11/30 05:02:59;;;;;;;10.50;5.43;;;;;;;3.37;100.00;99287.81;4468951;32;20452;-73
2022/11/30 05:05:27;;;;;;;9.15;4.68;;;;;;;3.41;100.00;99293.69;4468792;32;20092;-73
2022/11/30 05:07:56;;;;;;;10.77;4.95;;;;;;;3.36;100.00;99287.91;4476714;32;20092;-73
2022/11/30 05:10:24;;;;;;;12.70;4.65;;;;;;;3.38;100.00;99292.09;4468270;32;20141;-74
2022/11/30 05:12:52;;;;;;;12.57;5.50;;;;;;;3.42;100.00;99286.75;4468473;32;20119;-73
2022/11/30 05:15:19;;;;;;;12.37;4.47;;;;;;;3.43;100.00;99298.81;4468733;32;20823;-73
2022/11/30 05:17:47;;;;;;;8.50;4.60;;;;;;;3.40;100.00;99296.38;4468498;32;20183;-73
2022/11/30 05:20:14;;;;;;;11.30;5.15;;;;;;;3.44;100.00;99297.91;4471043;32;20116;-73
2022/11/30 05:22:41;;;;;;;9.88;5.10;;;;;;;3.55;100.00;99293.81;4483817;31;20528;-74
2022/11/30 05:25:08;;;;;;;9.48;5.12;;;;;;;3.58;100.00;99304.94;4482860;31;20280;-75
2022/11/30 05:27:36;;;;;;;9.77;4.55;;;;;;;3.63;100.00;99301.19;4474740;31;20473;-74
2022/11/30 05:30:04;;;;;;;10.85;5.10;;;;;;;3.91;100.00;99295.38;4474465;32;20084;-74
2022/11/30 05:32:31;;;;;;;10.07;4.85;;;;;;;3.78;99.90;99304.72;4475044;32;20556;-74
2022/11/30 05:34:58;;;;;;;11.15;4.68;;;;;;;3.84;99.81;99308.75;4475676;31;20146;-74
2022/11/30 05:37:26;;;;;;;7.62;4.35;;;;;;;3.89;100.00;99304.16;4476590;32;20105;-74
2022/11/30 05:39:53;;;;;;;9.75;5.47;;;;;;;3.83;100.00;99296.72;4475204;32;20442;-74
2022/11/30 05:42:20;;;;;;;10.65;4.95;;;;;;;3.79;98.91;99308.19;4474635;31;20104;-74
2022/11/30 05:44:47;;;;;;;15.02;5.12;;;;;;;3.86;100.00;99301.72;4476120;32;20122;-74
2022/11/30 05:47:18;;;;;;;11.23;5.40;;;;;;;3.85;97.75;99310.44;4474780;32;20160;-74
2022/11/30 05:49:45;;;;;;;10.70;4.90;;;;;;;3.86;98.44;99300.00;4475225;31;20096;-74
2022/11/30 05:52:12;;;;;;;7.90;4.30;;;;;;;3.89;99.00;99301.56;4477885;31;20533;-74
2022/11/30 05:54:39;;;;;;;8.35;4.22;;;;;;;3.76;96.13;99301.41;4475066;32;20100;-74
2022/11/30 05:57:06;;;;;;;9.95;4.32;;;;;;;3.91;99.55;99300.56;4479481;31;20110;-74
2022/11/30 05:59:33;;;;;;;18.20;5.00;;;;;;;3.93;100.00;99307.44;4471868;32;20100;-74
2022/11/30 06:02:00;;;;;;;18.48;4.90;;;;;;;3.83;96.87;99313.13;4480809;32;20156;-73
2022/11/30 06:04:28;;;;;;;9.25;4.93;;;;;;;3.82;97.69;99310.59;4483201;31;20520;-73
2022/11/30 06:06:55;;;;;;;10.48;4.85;;;;;;;3.75;97.61;99311.84;4483185;31;20076;-73
2022/11/30 06:09:22;;;;;;;9.52;4.28;;;;;;;3.67;96.96;99317.41;4483959;32;20107;-74
2022/11/30 06:11:50;;;;;;;12.00;5.18;;;;;;;3.88;99.42;99315.47;4485022;31;20118;-74
2022/11/30 06:14:17;;;;;;;10.45;5.05;;;;;;;3.91;97.99;99315.31;4482383;31;20114;-75
2022/11/30 06:16:44;;;;;;;10.00;4.65;;;;;;;3.97;98.63;99317.56;4482324;31;20122;-74
2022/11/30 06:19:11;;;;;;;17.15;4.47;;;;;;;3.98;99.21;99326.16;4484499;31;20079;-74
2022/11/30 06:21:38;;;;;;;14.32;4.95;;;;;;;3.87;98.05;99330.16;4484405;31;20096;-75
2022/11/30 06:24:06;;;;;;;18.67;5.15;;;;;;;3.65;97.56;99329.59;4484272;32;20145;-77
2022/11/30 06:26:33;;;;;;;11.10;4.95;;;;;;;3.60;97.89;99329.00;4485153;31;20556;-76
2022/11/30 06:29:00;;;;;;;10.93;4.65;;;;;;;3.61;98.36;99333.28;4485221;32;20108;-77
2022/11/30 06:31:27;;;;;;;15.23;5.43;;;;;;;3.56;97.46;99330.94;4484706;32;20520;-78
2022/11/30 06:33:58;;;;;;;10.80;4.97;;;;;;;3.51;97.81;99328.59;4483326;31;20825;-77
2022/11/30 06:36:25;;;;;;;9.85;4.70;;;;;;;3.53;98.79;99333.69;4483655;31;20096;-77
2022/11/30 06:39:00;;;;;;;10.77;4.47;;;;;;;3.59;97.95;99341.12;4474387;31;20186;-76
2022/11/30 06:41:27;;;;;;;12.85;4.93;;;;;;;3.62;97.32;99343.56;4474863;32;20873;-75
2022/11/30 06:43:54;;;;;;;14.55;3.95;;;;;;;3.58;98.29;99342.03;4478384;31;20104;-75
2022/11/30 06:46:21;;;;;;;18.25;4.95;;;;;;;3.61;97.70;99339.28;4484519;32;20514;-75
2022/11/30 06:48:49;;;;;;;12.00;4.22;;;;;;;3.60;98.88;99340.19;4485386;31;20148;-75
2022/11/30 06:51:16;;;;;;;13.43;4.93;;;;;;;3.63;97.15;99340.03;4484682;31;20136;-74
2022/11/30 06:53:45;;;;;;;12.10;4.80;;;;;;;3.64;98.21;99344.31;4484269;31;20663;-75
2022/11/30 06:56:12;;;;;;;12.40;4.78;;;;;;;3.69;98.07;99344.94;4484406;31;20114;-75
2022/11/30 06:58:39;;;;;;;12.73;4.70;;;;;;;3.71;96.83;99350.03;4483567;31;20253;-75
2022/11/30 07:01:12;;;;;;;11.65;5.03;;;;;;;3.72;97.75;99344.78;4484221;31;20123;-76
2022/11/30 07:03:40;;;;;;;9.60;5.05;;;;;;;3.72;96.99;99341.34;4484036;32;20100;-77
2022/11/30 07:06:10;;;;;;;10.93;4.90;;;;;;;3.83;96.53;99338.19;4474898;31;20124;-76
2022/11/30 07:08:38;;;;;;;14.40;4.80;;;;;;;3.84;95.99;99345.03;4476410;32;20146;-75
2022/11/30 07:11:06;;;;;;;9.02;3.87;;;;;;;3.84;95.72;99345.87;4483704;31;20171;-74
2022/11/30 07:13:33;;;;;;;10.20;4.75;;;;;;;3.95;97.37;99341.88;4482213;32;20113;-74
2022/11/30 07:16:05;;;;;;;10.05;5.32;;;;;;;4.00;94.89;99338.13;4483837;31;20089;-76
2022/11/30 07:18:32;;;;;;;11.60;4.30;;;;;;;3.99;95.53;99340.81;4482993;32;20107;-78
2022/11/30 07:21:01;;;;;;;7.97;4.25;;;;;;;3.95;96.99;99336.69;4475696;31;20191;-77
2022/11/30 07:26:24;;;;;;;9.40;4.45;;;;;;;3.96;93.00;99336.63;4418071;32;20128;-78
2022/11/30 07:28:53;;;;;;;9.73;4.12;;;;;;;3.89;93.32;99338.72;4414707;32;20097;-79
2022/11/30 07:31:22;;;;;;;10.13;3.97;;;;;;;3.99;95.52;99339.03;4406543;32;20129;-75
2022/11/30 07:33:50;;;;;;;7.22;4.07;;;;;;;3.98;92.90;99334.81;4406077;32;20163;-74
2022/11/30 07:36:20;;;;;;;18.77;4.82;;;;;;;4.02;94.03;99341.47;4416559;32;20588;-75
2022/11/30 07:38:47;;;;;;;8.50;4.50;;;;;;;3.95;92.76;99337.56;4419177;32;20563;-75
2022/11/30 07:41:16;;;;;;;8.40;4.40;;;;;;;3.98;94.18;99340.00;4416485;32;20109;-76
2022/11/30 07:43:43;;;;;;;8.90;4.30;;;;;;;3.88;94.16;99336.19;4416286;32;20177;-76
2022/11/30 07:46:12;;;;;;;11.18;4.97;;;;;;;3.98;93.72;99336.53;4410423;32;20341;-78
2022/11/30 07:48:40;;;;;;;7.93;4.00;;;;;;;4.04;92.18;99337.06;4409449;32;20148;-77
2022/11/30 07:51:12;;;;;;;9.65;4.80;;;;;;;4.14;91.17;99336.56;4411088;32;20207;-75
2022/11/30 07:53:40;;;;;;;11.95;4.78;;;;;;;4.10;92.17;99330.69;4405844;32;20553;-75
2022/11/30 07:56:09;;;;;;;9.25;3.75;;;;;;;4.14;92.88;99327.03;4411024;32;20097;-76
2022/11/30 07:58:37;;;;;;;13.73;4.95;;;;;;;4.13;91.63;99332.28;4412758;32;82590;-74
2022/11/30 08:01:07;;;;;;;10.07;3.72;;;;;;;4.10;91.67;99333.28;4414290;32;20129;-76
2022/11/30 08:03:35;;;;;;;8.55;4.45;;;;;;;4.25;92.26;99331.63;4468098;32;20135;-76
2022/11/30 08:06:06;;;;;;;8.98;4.10;;;;;;;4.39;91.97;99325.69;4474675;32;20108;-78
2022/11/30 08:08:35;;;;;;;12.18;4.18;;;;;;;4.28;90.56;99331.47;4472680;32;20104;-77
2022/11/30 08:11:04;;;;;;;9.23;3.95;;;;;;;4.28;90.68;99336.66;4480666;31;20258;-76
2022/11/30 08:13:31;;;;;;;6.25;3.30;;;;;;;4.25;90.80;99335.06;4474369;31;20118;-75
2022/11/30 08:16:13;;;;;;;13.18;3.95;;;;;;;4.34;91.17;99332.91;4480547;32;20512;-76
2022/11/30 08:18:41;;;;;;;16.67;4.22;;;;;;;4.43;92.44;99328.03;4466979;32;20176;-76
2022/11/30 08:21:10;;;;;;;10.45;4.62;;;;;;;4.58;92.90;99330.72;4477581;31;20100;-75
2022/11/30 08:23:43;;;;;;;8.23;4.22;;;;;;;4.52;90.59;99331.06;4473197;31;20108;-76
2022/11/30 08:26:17;;;;;;;10.95;4.30;;;;;;;4.59;91.33;99329.78;4472478;32;20124;-72
2022/11/30 08:28:46;;;;;;;8.82;4.53;;;;;;;4.58;89.74;99326.34;4472678;32;20103;-76
2022/11/30 08:31:16;;;;;;;8.55;4.12;;;;;;;4.53;89.74;99322.34;4473422;32;20162;-75
2022/11/30 08:33:45;;;;;;;7.25;3.42;;;;;;;4.63;87.75;99326.09;4474708;32;20121;-77
2022/11/30 08:36:15;;;;;;;11.25;4.45;;;;;;;4.65;89.07;99319.06;4484340;31;20214;-74
2022/11/30 08:38:43;;;;;;;6.95;3.50;;;;;;;4.73;88.72;99313.44;4483281;31;20138;-75
2022/11/30 08:41:13;;;;;;;9.48;4.15;;;;;;;4.72;88.22;99322.16;4474922;31;20130;-75
2022/11/30 08:43:41;;;;;;;9.65;4.75;;;;;;;4.76;88.65;99329.66;4470804;32;20168;-76
2022/11/30 08:46:10;;;;;;;8.18;4.00;;;;;;;4.80;86.90;99315.59;4470762;32;20127;-76
2022/11/30 08:48:58;;;;;;;10.35;4.30;;;;;;;4.77;85.67;99317.56;4468484;31;20191;-79
2022/11/30 08:51:45;;;;;;;6.80;3.47;;;;;;;4.80;86.94;99320.78;4470524;32;20461;-78
2022/11/30 08:54:32;;;;;;;8.80;3.60;;;;;;;4.85;87.92;99315.34;4469201;32;20104;-76
2022/11/30 08:56:59;;;;;;;7.55;3.45;;;;;;;4.86;85.14;99318.75;4473858;32;20124;-78
2022/11/30 08:59:26;;;;;;;8.45;3.85;;;;;;;4.97;84.98;99321.59;4471772;32;20147;-77
2022/11/30 09:01:54;;;;;;;10.88;3.95;;;;;;;5.02;85.00;99313.53;4470864;31;20247;-77
2022/11/30 09:04:21;;;;;;;7.03;3.28;;;;;;;5.01;82.96;99325.69;4468710;31;20146;-78
2022/11/30 09:06:48;;;;;;;7.18;3.75;;;;;;;4.97;83.58;99321.59;4468384;31;20673;-77
2022/11/30 09:09:15;;;;;;;9.82;4.30;;;;;;;4.97;84.70;99327.63;4467071;32;20196;-76
2022/11/30 09:11:42;;;;;;;10.73;4.28;;;;;;;5.02;84.22;99324.75;4479767;32;20183;-74
2022/11/30 09:14:09;;;;;;;10.25;4.18;;;;;;;5.10;86.66;99325.16;4483242;31;20468;-75
2022/11/30 09:16:36;;;;;;;8.82;3.97;;;;;;;5.10;86.00;99322.56;4482784;31;20118;-75
2022/11/30 09:19:03;;;;;;;8.48;3.75;;;;;;;5.14;83.21;99334.44;4472777;32;20119;-76
2022/11/30 09:21:31;;;;;;;8.38;3.75;;;;;;;5.13;84.04;99326.72;4471881;31;20576;-76
2022/11/30 09:23:58;;;;;;;5.80;2.90;;;;;;;5.19;85.02;99320.34;4472420;32;20156;-72
2022/11/30 09:26:25;;;;;;;8.93;3.50;;;;;;;5.20;83.74;99328.06;4469969;32;20120;-72
2022/11/30 09:28:53;;;;;;;9.30;3.30;;;;;;;5.15;81.49;99325.72;4469633;32;20195;-72
2022/11/30 09:31:23;;;;;;;13.88;4.07;;;;;;;5.19;82.40;99328.16;4483848;31;20477;-72
2022/11/30 09:33:50;;;;;;;6.97;3.47;;;;;;;5.15;82.98;99327.50;4475172;32;20141;-73
2022/11/30 09:36:20;;;;;;;8.85;3.78;;;;;;;5.15;83.45;99328.31;4483340;32;20167;-74
2022/11/30 09:38:48;;;;;;;8.52;4.47;;;;;;;5.19;81.23;99330.75;4473923;32;20123;-73
2022/11/30 09:41:45;;;;;;;10.85;3.20;;;;;;;5.28;83.79;99327.59;4477186;32;20096;-71
2022/11/30 09:44:28;;;;;;;7.62;4.12;;;;;;;5.35;80.59;99321.13;4479635;32;20148;-73
2022/11/30 09:47:29;;;;;;;10.45;4.97;;;;;;;5.36;81.36;99328.00;4477065;32;20519;-71
2022/11/30 09:50:15;;;;;;;9.80;3.15;;;;;;;5.33;82.17;99313.44;4482785;32;20143;-72
2022/11/30 09:52:54;;;;;;;7.05;3.47;;;;;;;5.44;81.38;99312.78;4479021;32;20104;-72
2022/11/30 09:55:38;;;;;;;8.68;3.60;;;;;;;5.50;83.60;99307.22;4473743;32;20517;-72
2022/11/30 09:58:05;;;;;;;11.23;5.07;;;;;;;5.40;80.04;99313.88;4482673;32;20525;-72
2022/11/30 10:00:34;;;;;;;9.00;4.00;;;;;;;5.50;80.12;99315.03;4468962;32;20179;-71
2022/11/30 10:03:03;;;;;;;9.20;4.25;;;;;;;5.46;80.52;99316.13;4477549;32;20210;-72
2022/11/30 10:05:48;;;;;;;12.10;4.65;;;;;;;5.53;81.02;99318.34;4477968;31;20168;-70
2022/11/30 10:08:26;;;;;;;10.98;4.05;;;;;;;5.39;81.95;99309.63;4470105;32;20115;-72
2022/11/30 10:11:05;;;;;;;20.58;5.22;;;;;;;5.43;82.54;99302.50;4476203;32;20466;-72
2022/11/30 10:14:03;;;;;;;8.35;4.32;;;;;;;5.44;82.62;99304.16;4478179;32;20163;-72
2022/11/30 10:16:38;;;;;;;11.43;3.87;;;;;;;5.42;81.96;99306.84;4468547;32;20874;-71
2022/11/30 10:19:26;;;;;;;13.62;4.60;;;;;;;5.32;81.32;99296.16;4468917;32;20116;-71
2022/11/30 10:22:22;;;;;;;13.70;4.95;;;;;;;5.37;83.62;99287.25;4478964;32;20176;-73
2022/11/30 10:25:11;;;;;;;8.63;4.70;;;;;;;5.43;80.41;99292.91;4482385;32;20114;-72
2022/11/30 10:27:45;;;;;;;9.73;3.83;;;;;;;5.41;81.99;99294.78;4465407;32;20159;-73
2022/11/30 10:30:16;;;;;;;8.32;3.87;;;;;;;5.43;82.04;99287.72;4445915;32;20138;-71
2022/11/30 10:32:45;;;;;;;8.20;3.87;;;;;;;5.40;81.75;99285.31;4454479;32;20096;-71
2022/11/30 10:35:18;;;;;;;9.63;3.75;;;;;;;5.49;83.02;99278.72;4453685;32;20458;-70
2022/11/30 10:37:46;;;;;;;7.20;3.12;;;;;;;5.46;80.10;99279.75;4448376;32;20128;-71
2022/11/30 10:40:20;;;;;;;7.20;3.65;;;;;;;5.43;82.63;99272.13;4449522;32;20132;-73
2022/11/30 10:43:03;;;;;;;9.48;4.28;;;;;;;5.41;84.29;99279.19;4450574;32;20144;-73
2022/11/30 10:45:32;;;;;;;11.83;4.40;;;;;;;5.43;83.79;99282.53;4459088;32;20164;-75
2022/11/30 10:48:11;;;;;;;12.23;4.93;;;;;;;5.44;82.62;99284.22;4449986;32;20136;-74
2022/11/30 10:50:39;;;;;;;11.43;4.60;;;;;;;5.58;83.60;99295.53;4460509;32;20512;-74
2022/11/30 10:53:09;;;;;;;11.85;4.12;;;;;;;5.62;81.67;99289.25;4463651;32;20542;-74
2022/11/30 10:55:44;;;;;;;9.00;4.90;;;;;;;5.63;82.01;99283.94;4452590;32;20104;-75
2022/11/30 10:58:30;;;;;;;8.18;4.70;;;;;;;5.61;82.27;99270.19;4441277;32;20124;-73
2022/11/30 11:01:08;;;;;;;9.75;4.68;;;;;;;5.65;81.40;99287.28;4451000;32;20499;-74
2022/11/30 11:03:36;;;;;;;9.45;4.97;;;;;;;5.62;81.58;99284.03;4464723;32;20119;-72
2022/11/30 11:06:11;;;;;;;9.02;4.22;;;;;;;5.64;81.63;99284.78;4466317;32;20217;-74
2022/11/30 11:08:41;;;;;;;8.95;4.65;;;;;;;5.69;83.16;99278.38;4447120;32;20135;-75
2022/11/30 11:11:28;;;;;;;9.20;4.53;;;;;;;5.73;82.61;99279.00;4461272;32;20783;-73
2022/11/30 11:14:08;;;;;;;8.65;4.28;;;;;;;5.50;82.09;99276.03;4444931;32;21129;-74
2022/11/30 11:16:54;;;;;;;7.72;3.92;;;;;;;5.44;82.43;99278.19;4453204;32;20149;-74
2022/11/30 11:19:32;;;;;;;7.37;4.53;;;;;;;5.56;84.66;99281.81;4468862;32;20111;-77
2022/11/30 11:22:06;;;;;;;9.02;4.32;;;;;;;5.60;83.43;99285.88;4446493;32;20120;-76
2022/11/30 11:24:34;;;;;;;13.85;5.22;;;;;;;5.57;84.13;99286.91;4441246;32;20202;-75
2022/11/30 11:27:01;;;;;;;11.50;4.90;;;;;;;5.63;83.44;99283.94;4446036;32;20506;-75
2022/11/30 11:29:33;;;;;;;9.73;5.00;;;;;;;5.61;83.76;99290.97;4452254;32;20113;-74
2022/11/30 11:32:08;;;;;;;15.70;5.80;;;;;;;5.68;84.93;99286.25;4450545;32;20127;-74
2022/11/30 11:34:36;;;;;;;9.90;5.20;;;;;;;5.64;82.94;99287.38;4445870;32;20089;-72
2022/11/30 11:37:11;;;;;;;9.52;5.55;;;;;;;5.73;83.37;99283.38;4441553;32;20677;-73
2022/11/30 11:39:38;;;;;;;17.33;5.53;;;;;;;5.93;82.48;99289.97;4441131;32;20183;-74
2022/11/30 11:42:16;;;;;;;14.45;5.35;;;;;;;6.06;83.59;99285.69;4450281;32;20171;-74
2022/11/30 11:44:51;;;;;;;15.82;5.20;;;;;;;6.18;82.23;99292.72;4449386;32;20109;-74
2022/11/30 11:47:39;;;;;;;7.53;4.43;;;;;;;6.12;80.67;99290.53;4443484;32;20434;-74
2022/11/30 11:50:21;;;;;;;9.52;4.47;;;;;;;5.98;81.45;99287.94;4449840;32;20117;-74